Time;durP1;ratioP1;P1;durP2;ratioP2;P2;SDS_P1;SDS_P2;PMS_P1;PMS_P2;Temp;Humidity;BMP_temperature;BMP_pressure;BME280_temperature;BME280_humidity;BME280_pressure;Samples;Min_cycle;Max_cycle;Signal;HPM_P1;HPM_P2
2022/09/18 00:00:14;;;;;;;9.88;2.10;;;;;;;12.55;100.00;101075.31;5050064;28;20052;-77
2022/09/18 00:02:40;;;;;;;9.93;2.13;;;;;;;12.48;100.00;101072.56;5050401;28;20049;-74
2022/09/18 00:05:07;;;;;;;12.75;2.45;;;;;;;12.43;100.00;101075.75;5043608;28;20164;-75
2022/09/18 00:07:34;;;;;;;8.35;2.15;;;;;;;12.42;100.00;101071.41;5047759;28;20045;-76
2022/09/18 00:10:00;;;;;;;11.70;3.85;;;;;;;12.42;100.00;101080.50;5049670;28;20098;-76
2022/09/18 00:12:26;;;;;;;11.27;2.30;;;;;;;12.39;100.00;101075.75;5048627;28;20059;-76
2022/09/18 00:14:53;;;;;;;9.05;2.33;;;;;;;12.42;100.00;101086.06;5049710;28;20893;-75
2022/09/18 00:17:19;;;;;;;8.20;2.50;;;;;;;12.43;100.00;101084.84;5046633;28;20056;-74
2022/09/18 00:19:46;;;;;;;9.10;2.05;;;;;;;12.29;100.00;101075.81;5049448;28;20048;-76
2022/09/18 00:22:12;;;;;;;2.83;1.27;;;;;;;12.32;100.00;101069.47;5049909;28;20137;-79
2022/09/18 00:24:39;;;;;;;5.72;1.88;;;;;;;12.32;100.00;101066.69;5048734;28;20048;-75
2022/09/18 00:27:05;;;;;;;8.52;2.28;;;;;;;12.33;100.00;101066.28;5048558;28;20114;-77
2022/09/18 00:29:31;;;;;;;10.73;2.75;;;;;;;12.38;100.00;101071.41;5049115;28;20312;-77
2022/09/18 00:31:58;;;;;;;9.32;2.13;;;;;;;12.33;100.00;101071.03;5049195;28;20090;-73
2022/09/18 00:34:25;;;;;;;7.05;2.63;;;;;;;12.41;100.00;101067.03;5047070;28;20063;-77
2022/09/18 00:36:51;;;;;;;6.72;2.10;;;;;;;12.33;100.00;101069.06;5049349;28;20106;-77
2022/09/18 00:39:18;;;;;;;9.13;2.40;;;;;;;12.32;100.00;101069.47;5050146;28;20059;-76
2022/09/18 00:41:44;;;;;;;12.52;2.78;;;;;;;12.41;100.00;101067.84;5047016;28;20056;-75
2022/09/18 00:44:44;;;;;;;14.43;3.28;;;;;;;12.40;100.00;101068.22;5048234;28;20640;-74
2022/09/18 00:47:10;;;;;;;6.78;2.50;;;;;;;12.39;100.00;101075.75;5047232;28;20056;-76
2022/09/18 00:49:41;;;;;;;13.90;2.60;;;;;;;12.39;100.00;101075.75;5048813;28;20519;-76
2022/09/18 00:52:09;;;;;;;12.20;2.67;;;;;;;12.43;100.00;101075.75;5046290;28;20048;-77
2022/09/18 00:54:43;;;;;;;12.85;3.10;;;;;;;12.44;100.00;101074.56;5039707;28;20052;-76
2022/09/18 00:57:17;;;;;;;13.77;3.00;;;;;;;12.42;100.00;101074.19;5048523;28;20056;-76
2022/09/18 00:59:47;;;;;;;15.02;3.08;;;;;;;12.40;100.00;101074.59;5043957;28;20529;-76
2022/09/18 01:02:13;;;;;;;12.18;3.17;;;;;;;12.34;100.00;101061.50;5047996;28;20059;-77
2022/09/18 01:04:39;;;;;;;10.35;2.72;;;;;;;12.46;100.00;101072.19;5049636;28;20098;-77
2022/09/18 01:07:15;;;;;;;9.50;3.28;;;;;;;12.46;100.00;101077.75;5048891;28;20060;-77
2022/09/18 01:09:58;;;;;;;;;;;;;;;12.39;100.00;101075.00;5048826;28;20052;-74
2022/09/18 01:12:33;;;;;;;12.18;2.50;;;;;;;12.36;100.00;101070.22;5047879;28;19928;-77
2022/09/18 01:15:04;;;;;;;;;;;;;;;12.38;100.00;101078.94;5049322;28;20044;-74
2022/09/18 01:18:21;;;;;;;14.05;2.58;;;;;;;12.42;100.00;101069.41;5052586;28;19924;-76
2022/09/18 01:21:03;;;;;;;8.75;2.10;;;;;;;12.40;100.00;101071.81;5015221;28;20052;-76
2022/09/18 01:23:51;;;;;;;17.60;3.00;;;;;;;12.48;100.00;101069.78;5048517;28;20059;-74
2022/09/18 01:26:20;;;;;;;12.85;2.60;;;;;;;12.48;100.00;101073.38;5046651;28;20095;-76
2022/09/18 01:29:13;;;;;;;13.52;2.47;;;;;;;12.49;100.00;101076.94;5048594;28;20056;-74
2022/09/18 01:31:57;;;;;;;5.30;1.75;;;;;;;12.38;100.00;101071.41;5044411;28;20060;-77
2022/09/18 01:34:50;;;;;;;10.00;2.85;;;;;;;12.42;100.00;101071.41;5046934;28;20098;-76
2022/09/18 01:37:41;;;;;;;13.77;2.50;;;;;;;12.34;100.00;101070.63;5044739;28;20048;-75
2022/09/18 01:40:35;;;;;;;16.35;3.67;;;;;;;12.48;100.00;101070.59;5042286;28;20048;-75
2022/09/18 01:43:07;;;;;;;13.90;2.97;;;;;;;12.46;100.00;101058.31;5042115;28;20860;-75
2022/09/18 01:45:41;;;;;;;14.90;2.92;;;;;;;12.49;100.00;101068.63;5049887;28;20049;-75
2022/09/18 01:48:15;;;;;;;13.38;3.17;;;;;;;12.47;100.00;101057.09;5049589;28;20563;-75
2022/09/18 01:50:48;;;;;;;11.77;3.25;;;;;;;12.46;100.00;101064.63;5047525;28;20052;-75
2022/09/18 01:53:23;;;;;;;15.48;4.75;;;;;;;12.48;100.00;101073.38;5040690;28;20060;-75
2022/09/18 01:55:55;;;;;;;9.55;2.60;;;;;;;12.37;100.00;101061.50;5046333;28;20125;-76
2022/09/18 01:58:25;;;;;;;10.98;2.67;;;;;;;12.47;100.00;101065.44;5049113;28;20144;-74
2022/09/18 02:00:56;;;;;;;14.35;3.00;;;;;;;12.46;100.00;101058.31;5049456;28;20938;-75
2022/09/18 02:03:28;;;;;;;14.48;3.67;;;;;;;12.44;100.00;101052.34;5048171;28;20056;-76
2022/09/18 02:06:35;;;;;;;15.15;3.67;;;;;;;12.48;100.00;101061.47;5046928;28;20053;-76
2022/09/18 02:09:02;;;;;;;17.08;2.72;;;;;;;12.50;100.00;101047.97;5059826;28;20105;-75
2022/09/18 02:11:31;;;;;;;5.55;1.40;;;;;;;12.45;100.00;101046.41;5070779;28;20106;-76
2022/09/18 02:14:13;;;;;;;16.33;3.53;;;;;;;12.51;100.00;101049.56;5070503;28;20121;-76
2022/09/18 02:16:44;;;;;;;11.30;2.95;;;;;;;12.51;100.00;101038.44;5054960;28;20049;-76
2022/09/18 02:19:41;;;;;;;10.00;2.92;;;;;;;12.49;100.00;101044.41;5055987;28;20049;-75
2022/09/18 02:22:12;;;;;;;18.75;2.78;;;;;;;12.50;100.00;101042.44;5058750;28;20056;-76
2022/09/18 02:24:41;;;;;;;13.90;2.35;;;;;;;12.46;100.00;101041.66;5069914;28;20037;-75
2022/09/18 02:27:10;;;;;;;16.15;3.03;;;;;;;12.48;100.00;101044.81;5054835;28;20121;-76
2022/09/18 02:29:37;;;;;;;6.93;2.22;;;;;;;12.42;100.00;101052.75;5055249;28;20049;-74
2022/09/18 02:32:03;;;;;;;8.90;3.45;;;;;;;12.39;100.00;101042.47;5059266;28;20056;-76
2022/09/18 02:34:32;;;;;;;5.38;1.40;;;;;;;12.40;100.00;101034.94;5062534;28;20049;-76
2022/09/18 02:37:18;;;;;;;16.50;3.20;;;;;;;12.54;100.00;101037.66;5068171;28;20566;-75
2022/09/18 02:40:08;;;;;;;15.10;3.75;;;;;;;12.55;100.00;101037.25;5066016;28;20048;-76
2022/09/18 02:42:56;;;;;;;14.93;3.30;;;;;;;12.51;100.00;101041.22;5062463;28;20049;-76
2022/09/18 02:45:35;;;;;;;17.63;3.47;;;;;;;12.50;100.00;101042.44;5059666;28;20505;-75
2022/09/18 02:48:04;;;;;;;17.00;3.67;;;;;;;12.53;100.00;101036.06;5067741;28;20721;-76
2022/09/18 02:50:45;;;;;;;15.27;3.50;;;;;;;12.47;100.00;101024.59;5064031;28;20481;-75
2022/09/18 02:53:22;;;;;;;10.98;2.90;;;;;;;12.43;100.00;101029.34;5060749;28;20126;-74
2022/09/18 02:56:01;;;;;;;15.73;3.42;;;;;;;12.51;100.00;101030.13;5063843;28;20044;-75
2022/09/18 02:58:30;;;;;;;16.60;3.83;;;;;;;12.51;100.00;101032.91;5055147;28;20509;-76
2022/09/18 03:01:01;;;;;;;12.65;3.65;;;;;;;12.47;100.00;101032.94;5058199;28;20505;-74
2022/09/18 03:03:30;;;;;;;17.33;4.30;;;;;;;12.53;100.00;101033.31;5062629;28;20501;-76
2022/09/18 03:05:57;;;;;;;15.38;3.80;;;;;;;12.56;100.00;101032.50;5062100;28;20048;-75
2022/09/18 03:08:24;;;;;;;11.82;4.25;;;;;;;12.54;100.00;101021.00;5062828;28;20049;-75
2022/09/18 03:10:50;;;;;;;13.00;3.97;;;;;;;12.48;100.00;101011.50;5060925;28;20068;-75
2022/09/18 03:13:17;;;;;;;17.23;5.45;;;;;;;12.57;100.00;101018.22;5067939;28;20053;-75
2022/09/18 03:15:43;;;;;;;10.98;3.85;;;;;;;12.53;100.00;101020.19;5063878;28;20041;-75
2022/09/18 03:18:10;;;;;;;12.90;3.83;;;;;;;12.52;100.00;101020.63;5052684;28;20063;-74
2022/09/18 03:20:36;;;;;;;18.30;4.45;;;;;;;12.61;100.00;101024.53;5061408;28;20512;-75
2022/09/18 03:23:03;;;;;;;17.55;5.53;;;;;;;12.60;100.00;101017.41;5066708;28;20051;-75
2022/09/18 03:25:29;;;;;;;16.10;5.35;;;;;;;12.57;100.00;101021.00;5061884;28;20691;-76
2022/09/18 03:27:57;;;;;;;19.63;6.45;;;;;;;12.58;100.00;101028.13;5064853;28;20488;-74
2022/09/18 03:30:23;;;;;;;18.38;4.88;;;;;;;12.53;100.00;101024.97;5060960;28;20055;-76
2022/09/18 03:32:50;;;;;;;13.55;4.93;;;;;;;12.62;100.00;101028.09;5069810;28;20106;-75
2022/09/18 03:35:17;;;;;;;17.10;5.38;;;;;;;12.64;100.00;101023.75;5060376;28;20045;-76
2022/09/18 03:37:43;;;;;;;14.13;4.50;;;;;;;12.62;100.00;101028.09;5069910;28;20074;-75
2022/09/18 03:40:10;;;;;;;15.80;5.00;;;;;;;12.66;100.00;101021.34;5064174;28;20126;-75
2022/09/18 03:42:37;;;;;;;16.10;4.78;;;;;;;12.65;100.00;101024.50;5058875;28;20049;-76
2022/09/18 03:45:04;;;;;;;14.27;4.85;;;;;;;12.63;100.00;101011.03;5063755;28;20049;-76
2022/09/18 03:47:30;;;;;;;20.02;5.80;;;;;;;12.60;100.00;101011.06;5061455;28;20107;-76
2022/09/18 03:50:04;;;;;;;15.63;5.43;;;;;;;12.60;100.00;101013.84;5061932;28;20123;-75
2022/09/18 03:52:32;;;;;;;18.70;4.93;;;;;;;12.49;100.00;101007.56;5061421;28;20051;-75
2022/09/18 03:54:58;;;;;;;15.10;5.07;;;;;;;12.49;100.00;101008.31;5057977;28;20037;-76
2022/09/18 03:57:25;;;;;;;2.72;1.30;;;;;;;12.38;100.00;101002.03;5064818;28;20408;-76
2022/09/18 03:59:51;;;;;;;16.08;4.20;;;;;;;12.48;100.00;101008.72;5053118;28;20139;-76
2022/09/18 04:02:18;;;;;;;12.73;4.38;;;;;;;12.46;100.00;101013.91;5058391;28;20045;-77
2022/09/18 04:04:44;;;;;;;14.60;4.25;;;;;;;12.50;100.00;101017.44;5066825;28;20045;-76
2022/09/18 04:07:10;;;;;;;11.43;3.50;;;;;;;12.44;100.00;101017.09;5053995;28;20048;-77
2022/09/18 04:09:37;;;;;;;16.30;5.30;;;;;;;12.41;100.00;101012.34;5067500;28;20493;-76
2022/09/18 04:12:04;;;;;;;17.27;4.57;;;;;;;12.42;100.00;101005.59;5065078;28;20044;-76
2022/09/18 04:14:30;;;;;;;12.93;4.93;;;;;;;12.41;100.00;101004.00;5056646;28;20048;-76
2022/09/18 04:16:56;;;;;;;7.88;1.90;;;;;;;12.33;100.00;101005.25;5057496;28;20052;-75
2022/09/18 04:19:23;;;;;;;13.70;4.07;;;;;;;12.40;100.00;101010.75;5069100;28;20052;-76
2022/09/18 04:21:49;;;;;;;13.45;4.60;;;;;;;12.37;100.00;100999.66;5058576;28;20056;-76
2022/09/18 04:24:16;;;;;;;19.80;5.32;;;;;;;12.45;100.00;101015.88;5058976;28;20460;-73
2022/09/18 04:26:42;;;;;;;16.35;5.38;;;;;;;12.46;100.00;101016.69;5064393;28;20103;-74
2022/09/18 04:29:09;;;;;;;15.73;5.38;;;;;;;12.50;100.00;101014.69;5065441;28;20447;-74
2022/09/18 04:31:35;;;;;;;15.20;6.40;;;;;;;12.51;100.00;101007.94;5055406;28;20053;-74
2022/09/18 04:34:02;;;;;;;16.27;5.55;;;;;;;12.42;100.00;101008.34;5065410;28;20135;-74
2022/09/18 04:36:28;;;;;;;17.08;6.82;;;;;;;12.42;100.00;101002.03;5057463;28;20048;-74
2022/09/18 04:38:54;;;;;;;18.63;6.60;;;;;;;12.54;100.00;101007.13;5061843;28;20059;-74
2022/09/18 04:41:21;;;;;;;16.52;7.00;;;;;;;12.49;100.00;101010.34;5065783;28;20041;-74
2022/09/18 04:43:47;;;;;;;16.48;4.78;;;;;;;12.40;100.00;101012.72;5064021;28;20903;-74
2022/09/18 04:46:14;;;;;;;14.15;5.28;;;;;;;12.45;100.00;101009.53;5057088;28;20049;-72
2022/09/18 04:48:44;;;;;;;15.90;4.93;;;;;;;12.53;100.00;101019.44;5065976;28;20071;-77
2022/09/18 04:51:10;;;;;;;14.32;4.75;;;;;;;12.50;100.00;101015.47;5060548;28;20072;-75
2022/09/18 04:53:38;;;;;;;17.70;4.68;;;;;;;12.46;100.00;101022.22;5066384;28;20105;-73
2022/09/18 04:56:04;;;;;;;12.77;4.80;;;;;;;12.50;100.00;101018.25;5059349;28;20592;-74
2022/09/18 04:58:31;;;;;;;13.27;4.60;;;;;;;12.50;100.00;101006.34;5060739;28;20048;-74
2022/09/18 05:00:58;;;;;;;13.18;4.22;;;;;;;12.48;100.00;101003.97;5067352;28;20052;-73
2022/09/18 05:03:24;;;;;;;13.15;4.07;;;;;;;12.45;100.00;101012.31;5060983;28;20102;-77
2022/09/18 05:05:51;;;;;;;8.13;3.33;;;;;;;12.37;100.00;101011.56;5057852;28;20106;-74
2022/09/18 05:08:17;;;;;;;5.13;2.03;;;;;;;12.33;100.00;101005.25;5058812;28;20558;-76
2022/09/18 05:10:44;;;;;;;12.45;3.75;;;;;;;12.39;100.00;101011.94;5063203;28;20048;-76
2022/09/18 05:13:10;;;;;;;11.98;4.18;;;;;;;12.39;100.00;101014.72;5058251;28;20056;-75
2022/09/18 05:15:37;;;;;;;14.10;3.95;;;;;;;12.39;100.00;101009.16;5066907;28;20492;-74
2022/09/18 05:18:05;;;;;;;14.60;4.57;;;;;;;12.47;100.00;101015.47;5057649;28;20812;-74
2022/09/18 05:20:37;;;;;;;13.82;5.28;;;;;;;12.45;100.00;101018.66;5061426;28;20040;-75
2022/09/18 05:23:04;;;;;;;15.80;4.22;;;;;;;12.38;100.00;101018.69;5056876;28;20364;-72
2022/09/18 05:25:31;;;;;;;5.53;2.78;;;;;;;12.35;100.00;101018.69;5062460;28;20044;-72
2022/09/18 05:27:59;;;;;;;12.45;3.78;;;;;;;12.38;100.00;101015.09;5061092;28;20053;-74
2022/09/18 05:30:27;;;;;;;15.18;4.57;;;;;;;12.44;100.00;101010.72;5056442;28;20459;-73
2022/09/18 05:33:02;;;;;;;17.13;4.15;;;;;;;12.39;100.00;101020.25;5063181;28;20052;-74
2022/09/18 05:35:30;;;;;;;;;;;;;;;12.39;100.00;101019.50;5064548;28;20470;-74
2022/09/18 05:37:56;;;;;;;14.50;4.07;;;;;;;12.43;100.00;101028.59;5056637;28;19928;-76
2022/09/18 05:40:29;;;;;;;12.73;3.80;;;;;;;12.44;100.00;101017.09;5060415;28;20055;-76
2022/09/18 05:42:56;;;;;;;10.18;2.45;;;;;;;12.32;100.00;101016.75;5060376;28;20060;-76
2022/09/18 05:45:23;;;;;;;13.25;3.72;;;;;;;12.35;100.00;101021.47;5058949;28;20052;-77
2022/09/18 05:47:54;;;;;;;14.60;4.13;;;;;;;12.38;100.00;101017.88;5064643;28;20098;-75
2022/09/18 05:50:21;;;;;;;19.35;5.00;;;;;;;12.41;100.00;101023.44;5066889;28;20058;-73
2022/09/18 05:52:54;;;;;;;17.25;5.53;;;;;;;12.49;100.00;101018.66;5058957;28;20509;-76
2022/09/18 05:55:21;;;;;;;14.25;6.40;;;;;;;12.50;100.00;101018.25;5051641;28;20060;-75
2022/09/18 05:57:51;;;;;;;17.50;7.40;;;;;;;12.50;100.00;101018.25;5057638;28;20053;-76
2022/09/18 06:00:18;;;;;;;18.17;6.75;;;;;;;12.52;100.00;101013.06;5059147;28;20056;-74
2022/09/18 06:03:00;;;;;;;16.35;6.10;;;;;;;12.51;100.00;101010.69;5064749;28;20048;-74
2022/09/18 06:05:29;;;;;;;14.63;5.70;;;;;;;12.55;100.00;101022.56;5059122;28;20048;-74
2022/09/18 06:08:00;;;;;;;14.20;6.30;;;;;;;12.61;100.00;101020.97;5068343;28;20045;-73
2022/09/18 06:10:31;;;;;;;9.98;3.22;;;;;;;12.42;100.00;101015.91;5067876;28;20102;-75
2022/09/18 06:13:08;;;;;;;10.00;2.20;;;;;;;12.46;100.00;101011.13;5063986;28;20052;-74
2022/09/18 06:15:35;;;;;;;18.15;6.13;;;;;;;12.57;100.00;101014.66;5066513;28;20052;-73
2022/09/18 06:18:04;;;;;;;6.95;2.55;;;;;;;12.50;100.00;101026.59;5067965;28;20049;-74
2022/09/18 06:20:31;;;;;;;15.45;5.40;;;;;;;12.57;100.00;101017.41;5067479;28;20102;-73
2022/09/18 06:22:59;;;;;;;14.35;6.18;;;;;;;12.58;100.00;101021.78;5066260;28;20049;-73
2022/09/18 06:25:29;;;;;;;15.05;5.22;;;;;;;12.58;100.00;101016.22;5067795;28;20041;-75
2022/09/18 06:27:59;;;;;;;16.83;5.93;;;;;;;12.59;100.00;101023.38;5065460;28;20115;-73
2022/09/18 06:30:28;;;;;;;11.57;3.40;;;;;;;12.56;100.00;101018.63;5062846;28;20052;-74
2022/09/18 06:32:58;;;;;;;18.83;5.93;;;;;;;12.64;100.00;101020.16;5065061;28;20049;-74
2022/09/18 06:35:24;;;;;;;14.55;5.13;;;;;;;12.71;100.00;101026.47;5065816;28;20064;-76
2022/09/18 06:37:51;;;;;;;18.35;6.03;;;;;;;12.71;100.00;101025.69;5066652;28;20052;-75
2022/09/18 06:40:17;;;;;;;16.83;6.45;;;;;;;12.71;100.00;101020.94;5066534;28;20747;-74
2022/09/18 06:42:44;;;;;;;16.73;7.10;;;;;;;12.69;100.00;101028.84;5065855;28;20689;-69
2022/09/18 06:45:11;;;;;;;20.45;7.75;;;;;;;12.73;100.00;101035.19;5066301;28;20044;-70
2022/09/18 06:47:38;;;;;;;22.95;7.32;;;;;;;12.75;100.00;101032.81;5058321;28;20056;-70
2022/09/18 06:50:06;;;;;;;14.20;5.05;;;;;;;12.72;100.00;101032.81;5055929;28;20060;-69
2022/09/18 06:52:33;;;;;;;14.93;6.47;;;;;;;12.73;100.00;101028.84;5062191;28;20056;-67
2022/09/18 06:54:59;;;;;;;20.60;6.95;;;;;;;12.79;100.00;101030.78;5052497;28;20091;-70
2022/09/18 06:57:26;;;;;;;16.83;6.45;;;;;;;12.78;100.00;101028.41;5073079;28;20044;-69
2022/09/18 06:59:52;;;;;;;16.55;6.30;;;;;;;12.79;100.00;101030.00;5069123;28;20122;-70
2022/09/18 07:02:19;;;;;;;17.17;7.88;;;;;;;12.89;100.00;101029.13;5063855;28;20837;-69
2022/09/18 07:04:45;;;;;;;17.38;6.10;;;;;;;12.83;100.00;101028.00;5059482;28;20065;-70
2022/09/18 07:07:12;;;;;;;17.00;6.47;;;;;;;12.90;100.00;101027.97;5058310;28;20447;-70
2022/09/18 07:09:38;;;;;;;16.30;5.20;;;;;;;12.83;100.00;101016.91;5057866;28;20190;-69
2022/09/18 07:12:05;;;;;;;13.43;3.58;;;;;;;12.84;100.00;101027.59;5061451;28;20102;-70
2022/09/18 07:14:32;;;;;;;18.42;5.22;;;;;;;12.88;100.00;101033.13;5068408;28;20455;-70
2022/09/18 07:16:58;;;;;;;15.70;5.20;;;;;;;12.88;100.00;101030.34;5066189;28;20051;-70
2022/09/18 07:19:24;;;;;;;15.38;4.15;;;;;;;12.80;100.00;101028.81;5058172;28;20052;-71
2022/09/18 07:21:51;;;;;;;16.00;5.07;;;;;;;12.86;100.00;101024.44;5066436;28;20079;-70
2022/09/18 07:24:18;;;;;;;13.52;5.13;;;;;;;12.85;100.00;101018.06;5069074;28;20060;-70
2022/09/18 07:26:44;;;;;;;16.55;5.93;;;;;;;12.96;100.00;101018.78;5056355;28;20060;-69
2022/09/18 07:29:11;;;;;;;17.17;6.18;;;;;;;12.96;100.00;101018.00;5064467;28;20055;-71
2022/09/18 07:31:37;;;;;;;14.55;5.38;;;;;;;12.93;100.00;101013.28;5069685;28;20473;-68
2022/09/18 07:34:06;;;;;;;16.90;6.32;;;;;;;13.01;100.00;101009.28;5070715;28;20131;-71
2022/09/18 07:36:32;;;;;;;16.58;6.40;;;;;;;13.03;100.00;101006.91;5068688;28;20455;-70
2022/09/18 07:38:59;;;;;;;14.15;3.28;;;;;;;13.04;100.00;101014.03;5068546;28;20059;-70
2022/09/18 07:41:25;;;;;;;10.25;2.85;;;;;;;13.01;100.00;101003.72;5067222;28;20044;-71
2022/09/18 07:43:52;;;;;;;9.73;3.22;;;;;;;13.03;100.00;101007.66;5067969;28;20067;-71
2022/09/18 07:46:18;;;;;;;12.82;4.35;;;;;;;13.14;100.00;101006.81;5069609;28;20047;-70
2022/09/18 07:48:45;;;;;;;12.18;3.85;;;;;;;13.16;100.00;100998.88;5060030;28;20083;-71
2022/09/18 07:51:11;;;;;;;12.30;3.47;;;;;;;13.22;100.00;101006.34;5056773;28;20052;-71
2022/09/18 07:53:38;;;;;;;7.50;2.70;;;;;;;13.25;100.00;101015.84;5068804;28;20447;-71
2022/09/18 07:56:09;;;;;;;8.50;2.90;;;;;;;13.28;100.00;101021.41;5060298;28;20056;-69
2022/09/18 07:58:36;;;;;;;4.72;1.60;;;;;;;13.19;100.00;101023.84;5069375;28;20045;-70
2022/09/18 08:01:03;;;;;;;11.35;2.90;;;;;;;13.29;100.00;101028.53;5060196;28;20063;-71
2022/09/18 08:03:30;;;;;;;11.18;3.00;;;;;;;13.30;100.00;101023.78;5062397;28;20054;-71
2022/09/18 08:05:57;;;;;;;10.95;3.10;;;;;;;13.20;100.00;101025.44;5052158;28;20045;-71
2022/09/18 08:08:24;;;;;;;6.90;1.85;;;;;;;13.09;100.00;101021.16;5066439;28;20063;-70
2022/09/18 08:10:50;;;;;;;5.55;2.10;;;;;;;13.10;100.00;101020.75;5057759;28;20079;-70
2022/09/18 08:13:17;;;;;;;10.82;2.33;;;;;;;13.15;100.00;101027.81;5065759;28;20049;-70
2022/09/18 08:15:43;;;;;;;9.02;2.33;;;;;;;13.10;100.00;101026.28;5067521;28;20055;-69
2022/09/18 08:18:10;;;;;;;8.13;2.80;;;;;;;13.11;100.00;101030.66;5068234;28;20056;-69
2022/09/18 08:20:37;;;;;;;17.15;3.38;;;;;;;13.08;100.00;101023.13;5068133;28;20525;-70
2022/09/18 08:23:05;;;;;;;4.53;1.83;;;;;;;13.00;100.00;101018.81;5063726;28;20059;-68
2022/09/18 08:25:32;;;;;;;6.43;2.38;;;;;;;12.97;100.00;101019.59;5065233;28;20463;-70
2022/09/18 08:28:00;;;;;;;11.57;3.25;;;;;;;12.94;100.00;101010.09;5066770;28;20056;-69
2022/09/18 08:30:28;;;;;;;13.48;4.55;;;;;;;12.92;100.00;101011.66;5064815;28;20115;-68
2022/09/18 08:33:05;;;;;;;11.93;4.45;;;;;;;12.97;100.00;101016.81;5062179;28;20053;-69
2022/09/18 08:35:33;;;;;;;9.02;2.80;;;;;;;12.93;100.00;101016.81;5056368;28;20068;-69
2022/09/18 08:38:00;;;;;;;13.73;2.75;;;;;;;12.91;100.00;101023.97;5056122;28;20041;-70
2022/09/18 08:40:29;;;;;;;4.20;1.73;;;;;;;12.89;100.00;101018.03;5065417;28;20052;-69
2022/09/18 08:43:13;;;;;;;7.55;2.20;;;;;;;12.95;100.00;101028.34;5059820;28;20048;-71
2022/09/18 08:46:04;;;;;;;11.90;2.33;;;;;;;13.00;100.00;101025.16;5063617;28;20044;-69
2022/09/18 08:48:37;;;;;;;8.88;2.30;;;;;;;13.04;100.00;101025.91;5065101;28;20102;-71
2022/09/18 08:51:33;;;;;;;2.13;1.30;;;;;;;12.97;100.00;101022.38;5065892;28;20072;-68
2022/09/18 08:54:19;;;;;;;13.32;2.13;;;;;;;13.03;100.00;101029.88;5064669;28;20676;-68
2022/09/18 08:56:46;;;;;;;8.63;2.42;;;;;;;13.14;100.00;101027.06;5065861;28;20508;-71
2022/09/18 08:59:36;;;;;;;5.00;2.15;;;;;;;13.01;100.00;101025.94;5056473;28;20048;-70
2022/09/18 09:02:15;;;;;;;5.30;2.40;;;;;;;12.98;100.00;101026.72;5059717;28;20106;-71
2022/09/18 09:04:42;;;;;;;5.53;2.40;;;;;;;13.04;100.00;101023.13;5062688;28;20155;-70
2022/09/18 09:07:21;;;;;;;6.00;2.30;;;;;;;13.19;100.00;101028.63;5064572;28;20040;-70
2022/09/18 09:10:06;;;;;;;7.80;2.80;;;;;;;13.19;100.00;101029.38;5064871;28;20064;-70
2022/09/18 09:13:05;;;;;;;5.82;2.70;;;;;;;13.21;100.00;101026.19;5055675;28;20836;-70
2022/09/18 09:15:46;;;;;;;8.80;2.70;;;;;;;13.18;100.00;101018.69;5055259;28;20377;-71
2022/09/18 09:18:20;;;;;;;12.60;3.17;;;;;;;13.21;100.00;101026.19;5057836;28;20136;-70
2022/09/18 09:20:54;;;;;;;6.85;2.80;;;;;;;13.24;100.00;101015.09;5058484;28;20958;-71
2022/09/18 09:23:54;;;;;;;8.00;2.60;;;;;;;13.23;100.00;101012.72;5058550;28;20119;-72
2022/09/18 09:26:22;;;;;;;7.38;2.20;;;;;;;13.23;100.00;101002.34;5064571;28;20127;-71
2022/09/18 09:28:48;;;;;;;5.13;1.80;;;;;;;13.24;100.00;101012.28;5066514;28;20323;-71
2022/09/18 09:31:22;;;;;;;3.55;1.60;;;;;;;13.32;100.00;101010.25;5061917;28;20142;-70
2022/09/18 09:33:58;;;;;;;7.30;2.20;;;;;;;13.34;100.00;100999.50;5064117;28;20055;-69
2022/09/18 09:36:29;;;;;;;9.52;2.83;;;;;;;13.37;100.00;100993.13;5065815;28;20036;-72
2022/09/18 09:39:14;;;;;;;5.72;1.73;;;;;;;13.46;100.00;100988.69;5064941;28;20057;-72
2022/09/18 09:42:06;;;;;;;5.80;1.85;;;;;;;13.54;100.00;101003.31;5060107;28;20508;-71
2022/09/18 09:44:40;;;;;;;6.45;2.13;;;;;;;13.56;100.00;100981.47;5065637;28;20044;-70
2022/09/18 09:47:07;;;;;;;6.35;1.67;;;;;;;13.58;100.00;100984.63;5066946;28;20047;-70
2022/09/18 09:50:11;;;;;;;7.20;1.90;;;;;;;13.44;100.00;100988.31;5065382;28;20430;-71
2022/09/18 09:52:42;;;;;;;3.35;1.35;;;;;;;13.57;100.00;100988.59;5062591;28;20061;-70
2022/09/18 09:55:18;;;;;;;6.43;1.30;;;;;;;13.50;100.00;100994.22;5062955;28;20045;-72
2022/09/18 09:58:20;;;;;;;7.15;2.33;;;;;;;13.58;100.00;100979.06;5059021;28;20041;-73
2022/09/18 10:01:11;;;;;;;3.80;1.23;;;;;;;13.55;100.00;100983.44;5054919;28;20129;-70
2022/09/18 10:03:46;;;;;;;7.25;1.30;;;;;;;13.63;100.00;100986.97;5046533;28;20064;-66
2022/09/18 10:06:32;;;;;;;5.63;1.50;;;;;;;13.69;100.00;100983.31;5065357;28;20056;-68
2022/09/18 10:09:08;;;;;;;8.68;1.67;;;;;;;13.65;100.00;100979.00;5061465;28;20052;-70
2022/09/18 10:11:39;;;;;;;8.07;1.63;;;;;;;13.62;100.00;100979.81;5060516;28;20056;-68
2022/09/18 10:14:18;;;;;;;6.40;1.25;;;;;;;13.57;100.00;100988.59;5031648;28;20052;-71
2022/09/18 10:16:49;;;;;;;6.90;1.85;;;;;;;13.65;100.00;100974.22;5036559;28;20045;-71
2022/09/18 10:19:18;;;;;;;8.07;1.85;;;;;;;13.72;100.00;100971.38;5039539;28;20161;-71
2022/09/18 10:21:46;;;;;;;6.50;1.75;;;;;;;13.85;100.00;100972.44;5045499;28;20056;-71
2022/09/18 10:24:25;;;;;;;10.27;2.00;;;;;;;13.95;100.00;100977.09;5051390;28;20044;-70
2022/09/18 10:27:00;;;;;;;2.55;1.38;;;;;;;14.04;100.00;100969.03;5049103;28;20066;-69
2022/09/18 10:29:27;;;;;;;6.78;1.60;;;;;;;14.09;100.00;100971.38;5043385;28;20730;-71
2022/09/18 10:31:59;;;;;;;9.90;1.58;;;;;;;14.20;100.00;100966.47;5038139;28;20072;-70
2022/09/18 10:34:39;;;;;;;9.43;1.75;;;;;;;14.30;100.00;100960.00;5043213;28;20056;-70
2022/09/18 10:37:32;;;;;;;4.70;1.48;;;;;;;14.37;100.00;100956.34;5047125;28;20056;-70
2022/09/18 10:40:00;;;;;;;7.47;2.00;;;;;;;14.52;100.00;100961.31;5036670;28;20798;-72
2022/09/18 10:42:32;;;;;;;6.45;2.03;;;;;;;14.45;100.00;100957.84;5038860;28;20143;-69
2022/09/18 10:45:03;;;;;;;6.55;1.85;;;;;;;14.57;100.00;100951.69;5041198;28;20560;-69
2022/09/18 10:47:35;;;;;;;8.07;1.45;;;;;;;14.48;100.00;100949.44;5040094;28;20091;-70
2022/09/18 10:50:18;;;;;;;4.55;1.20;;;;;;;14.40;100.00;100949.94;5039032;28;20063;-71
2022/09/18 10:52:46;;;;;;;7.35;1.55;;;;;;;14.36;100.00;100938.06;5036579;28;20052;-71
2022/09/18 10:55:22;;;;;;;4.65;1.50;;;;;;;14.35;100.00;100951.19;5039890;28;22031;-71
2022/09/18 10:57:48;;;;;;;3.97;1.23;;;;;;;14.35;100.00;100951.19;5041803;28;20130;-69
2022/09/18 11:00:18;;;;;;;6.78;1.60;;;;;;;14.37;100.00;100950.78;5037372;28;20052;-69
2022/09/18 11:02:47;;;;;;;7.15;1.90;;;;;;;14.49;100.00;100958.59;5042478;28;20052;-71
2022/09/18 11:05:37;;;;;;;5.80;1.10;;;;;;;14.44;100.00;100954.25;5046941;28;20057;-69
2022/09/18 11:08:13;;;;;;;4.47;1.23;;;;;;;14.34;100.00;100955.19;5041251;28;20045;-68
2022/09/18 11:10:47;;;;;;;3.50;1.00;;;;;;;14.44;100.00;100948.69;5045676;28;20110;-68
2022/09/18 11:13:22;;;;;;;5.65;1.10;;;;;;;14.53;100.00;100956.53;5048704;28;20051;-71
2022/09/18 11:15:57;;;;;;;4.57;1.27;;;;;;;14.48;100.00;100951.44;5049274;28;20332;-71
2022/09/18 11:18:25;;;;;;;5.22;1.42;;;;;;;14.58;100.00;100942.94;5046089;28;20153;-72
2022/09/18 11:20:53;;;;;;;3.35;1.20;;;;;;;14.55;100.00;100954.13;5047702;28;20868;-71
2022/09/18 11:23:32;;;;;;;5.20;1.17;;;;;;;14.53;100.00;100945.41;5051158;28;20143;-71
2022/09/18 11:26:18;;;;;;;6.20;1.27;;;;;;;14.59;100.00;100944.53;5044960;28;20053;-72
2022/09/18 11:28:57;;;;;;;;;;;;;;;14.57;100.00;100949.72;5050379;28;20055;-69
2022/09/18 11:31:24;;;;;;;1.90;0.68;;;;;;;14.40;100.00;100942.38;5045705;28;21257;-71
2022/09/18 11:33:55;;;;;;;5.78;1.30;;;;;;;14.50;100.00;100938.69;5050974;28;20126;-71